Time;durP1;ratioP1;P1;durP2;ratioP2;P2;SDS_P1;SDS_P2;PMS_P1;PMS_P2;Temp;Humidity;BMP_temperature;BMP_pressure;BME280_temperature;BME280_humidity;BME280_pressure;Samples;Min_cycle;Max_cycle;Signal;HPM_P1;HPM_P2
2022/03/03 00:01:11;;;;;;;74.93;53.35;;;1.70;99.90;;;;;;4940637;28;89773;-33
2022/03/03 00:03:37;;;;;;;70.28;51.45;;;1.60;99.90;;;;;;4940699;28;89602;-31
2022/03/03 00:06:02;;;;;;;74.85;52.65;;;1.50;99.90;;;;;;4951380;23;89560;-33
2022/03/03 00:08:28;;;;;;;69.63;54.78;;;1.40;99.90;;;;;;4920965;28;89869;-30
2022/03/03 00:10:54;;;;;;;75.38;55.38;;;1.40;99.90;;;;;;4920279;28;90477;-30
2022/03/03 00:13:19;;;;;;;75.22;53.15;;;1.40;99.90;;;;;;4921231;28;89462;-31
2022/03/03 00:15:45;;;;;;;63.55;47.60;;;1.30;99.90;;;;;;4921123;28;89809;-31
2022/03/03 00:18:10;;;;;;;77.50;55.28;;;1.40;99.90;;;;;;4920574;28;89889;-35
2022/03/03 00:20:36;;;;;;;74.78;54.00;;;1.50;99.90;;;;;;4920763;28;89870;-29
2022/03/03 00:23:01;;;;;;;68.00;52.53;;;1.50;99.90;;;;;;4920411;28;90181;-31
2022/03/03 00:25:27;;;;;;;79.63;57.53;;;1.50;99.90;;;;;;4921056;28;89971;-30
2022/03/03 00:27:53;;;;;;;80.00;56.42;;;1.60;99.90;;;;;;4920788;28;89000;-32
2022/03/03 00:30:18;;;;;;;78.85;54.22;;;1.60;99.90;;;;;;4921495;28;89471;-29
2022/03/03 00:32:44;;;;;;;79.03;57.40;;;1.70;99.90;;;;;;4920405;28;90642;-31
2022/03/03 00:35:11;;;;;;;71.68;56.33;;;1.70;99.90;;;;;;4918793;28;90832;-31
2022/03/03 00:37:37;;;;;;;73.72;54.85;;;1.60;99.90;;;;;;4920622;28;90480;-29
2022/03/03 00:40:04;;;;;;;79.47;52.65;;;1.50;99.90;;;;;;4920458;28;88798;-31
2022/03/03 00:42:30;;;;;;;72.78;54.40;;;1.40;99.90;;;;;;4919985;28;88911;-32
2022/03/03 00:44:56;;;;;;;80.18;56.17;;;1.40;99.90;;;;;;4921092;28;89630;-31
2022/03/03 00:47:22;;;;;;;78.20;56.38;;;1.40;99.90;;;;;;4919933;28;88708;-30
2022/03/03 00:49:47;;;;;;;78.70;53.83;;;1.40;99.90;;;;;;4919672;28;89303;-31
2022/03/03 00:52:13;;;;;;;75.35;54.33;;;1.40;99.90;;;;;;4920573;28;90228;-33
2022/03/03 00:54:38;;;;;;;76.95;54.45;;;1.40;99.90;;;;;;4920034;28;89819;-36
2022/03/03 00:57:04;;;;;;;72.60;53.92;;;1.30;99.90;;;;;;4920205;28;89561;-31
2022/03/03 00:59:30;;;;;;;74.40;52.72;;;1.30;99.90;;;;;;4919450;28;89981;-32
2022/03/03 01:01:55;;;;;;;82.22;55.25;;;1.20;99.90;;;;;;4920484;28;91133;-31
2022/03/03 01:04:22;;;;;;;68.70;49.85;;;1.20;99.90;;;;;;4919857;28;89366;-30
2022/03/03 01:06:48;;;;;;;72.95;51.80;;;1.30;99.90;;;;;;4919131;28;89708;-35
2022/03/03 01:09:14;;;;;;;72.30;53.75;;;1.40;99.90;;;;;;4920196;28;89866;-31
2022/03/03 01:11:39;;;;;;;74.05;52.95;;;1.50;99.90;;;;;;4920203;28;90035;-30
2022/03/03 01:14:05;;;;;;;76.07;53.78;;;1.50;99.90;;;;;;4919242;28;90629;-36
2022/03/03 01:16:31;;;;;;;72.47;53.25;;;1.40;99.90;;;;;;4919792;28;89737;-35
2022/03/03 01:18:56;;;;;;;67.72;52.80;;;1.40;99.90;;;;;;4919972;28;87871;-31
2022/03/03 01:21:22;;;;;;;72.20;52.13;;;1.40;99.90;;;;;;4918214;28;90479;-29
2022/03/03 01:23:47;;;;;;;74.22;53.20;;;1.40;99.90;;;;;;4918906;28;91030;-32
2022/03/03 01:26:13;;;;;;;77.13;55.33;;;1.30;99.90;;;;;;4919999;28;90475;-34
2022/03/03 01:28:39;;;;;;;73.35;51.13;;;1.20;99.90;;;;;;4919907;28;89283;-31
2022/03/03 01:31:05;;;;;;;69.78;51.45;;;1.20;99.90;;;;;;4919933;28;90220;-34
2022/03/03 01:33:30;;;;;;;72.45;51.28;;;1.10;99.90;;;;;;4917525;28;91914;-33
2022/03/03 01:35:56;;;;;;;75.25;54.45;;;1.00;99.90;;;;;;4919613;28;89561;-31
2022/03/03 01:38:21;;;;;;;76.90;54.67;;;0.90;99.90;;;;;;4919401;28;89385;-31
2022/03/03 01:40:47;;;;;;;66.38;50.53;;;1.00;99.90;;;;;;4919414;28;90368;-32
2022/03/03 01:43:12;;;;;;;77.88;55.17;;;0.90;99.90;;;;;;4919145;28;90085;-33
2022/03/03 01:45:38;;;;;;;67.80;48.80;;;0.90;99.90;;;;;;4919104;28;89877;-34
2022/03/03 01:48:04;;;;;;;72.47;50.88;;;0.90;99.90;;;;;;4919438;28;90572;-30
2022/03/03 01:50:30;;;;;;;69.07;53.97;;;0.80;99.90;;;;;;4919582;28;91466;-30
2022/03/03 01:52:55;;;;;;;68.40;51.20;;;0.80;99.90;;;;;;4919366;28;89740;-30
2022/03/03 01:55:22;;;;;;;71.60;51.50;;;0.80;99.90;;;;;;4918204;28;89675;-31
2022/03/03 01:57:49;;;;;;;77.10;53.03;;;0.80;99.90;;;;;;4919134;28;88539;-31
2022/03/03 02:00:15;;;;;;;61.88;52.45;;;0.80;99.90;;;;;;4920058;28;90673;-32
2022/03/03 02:02:41;;;;;;;73.15;53.25;;;0.80;99.90;;;;;;4923175;28;89830;-30
2022/03/03 02:05:07;;;;;;;74.60;53.88;;;0.80;99.90;;;;;;4922727;28;90217;-31
2022/03/03 02:07:34;;;;;;;74.50;51.40;;;0.80;99.90;;;;;;4922953;28;90022;-33
2022/03/03 02:10:02;;;;;;;70.80;50.53;;;0.80;99.90;;;;;;4923398;28;91081;-31
2022/03/03 02:12:28;;;;;;;69.77;52.90;;;0.80;99.90;;;;;;4922087;28;90636;-31
2022/03/03 02:14:53;;;;;;;68.22;51.05;;;0.80;99.90;;;;;;4922641;28;90808;-30
2022/03/03 02:17:19;;;;;;;71.05;54.13;;;0.80;99.90;;;;;;4922743;28;87708;-32
2022/03/03 02:19:45;;;;;;;68.65;52.78;;;0.70;99.90;;;;;;4922575;28;90423;-32
2022/03/03 02:22:10;;;;;;;71.72;49.53;;;0.80;99.90;;;;;;4922563;28;89407;-35
2022/03/03 02:24:38;;;;;;;64.95;48.00;;;0.70;99.90;;;;;;4922343;28;90130;-31
2022/03/03 02:27:04;;;;;;;72.43;48.67;;;0.70;99.90;;;;;;4922770;28;89643;-34
2022/03/03 02:29:31;;;;;;;67.10;50.67;;;0.60;99.90;;;;;;4921205;28;91745;-31
2022/03/03 02:31:57;;;;;;;68.05;49.67;;;0.60;99.90;;;;;;4921917;28;89613;-33
2022/03/03 02:34:23;;;;;;;67.55;52.70;;;0.50;99.90;;;;;;4921922;28;89507;-30
2022/03/03 02:36:49;;;;;;;71.28;52.22;;;0.50;99.90;;;;;;4922479;28;89827;-31
2022/03/03 02:39:14;;;;;;;71.43;49.63;;;0.50;99.90;;;;;;4921837;28;89272;-29
2022/03/03 02:41:40;;;;;;;68.47;51.20;;;0.50;99.90;;;;;;4923073;28;89644;-33
2022/03/03 02:44:06;;;;;;;66.97;49.22;;;0.50;99.90;;;;;;4921983;28;90655;-29
2022/03/03 02:46:31;;;;;;;71.65;50.75;;;0.40;99.90;;;;;;4921764;28;88809;-34
2022/03/03 02:48:57;;;;;;;65.53;48.75;;;0.50;99.90;;;;;;4922059;28;90488;-31
2022/03/03 02:51:23;;;;;;;73.10;50.38;;;0.40;99.90;;;;;;4921792;28;90210;-32
2022/03/03 02:53:49;;;;;;;69.30;51.85;;;0.50;99.90;;;;;;4922563;28;88366;-34
2022/03/03 02:56:15;;;;;;;72.28;52.15;;;0.50;99.90;;;;;;4921678;28;89073;-29
2022/03/03 02:58:41;;;;;;;66.07;49.03;;;0.50;99.90;;;;;;4921598;28;90216;-36
2022/03/03 03:01:08;;;;;;;74.90;51.08;;;0.50;99.90;;;;;;4921875;28;91914;-32
2022/03/03 03:03:33;;;;;;;69.80;49.30;;;0.50;99.90;;;;;;4921285;28;90589;-33
2022/03/03 03:05:59;;;;;;;63.78;49.03;;;0.40;99.90;;;;;;4921368;28;88297;-32
2022/03/03 03:08:25;;;;;;;69.97;50.08;;;0.40;99.90;;;;;;4921483;28;91843;-33
2022/03/03 03:10:50;;;;;;;70.18;51.05;;;0.30;99.90;;;;;;4921675;28;90312;-30
2022/03/03 03:13:16;;;;;;;70.13;51.55;;;0.30;99.90;;;;;;4920555;28;91313;-30
2022/03/03 03:15:43;;;;;;;70.05;49.95;;;0.40;99.90;;;;;;4922170;28;88141;-29
2022/03/03 03:18:18;;;;;;;64.53;48.75;;;0.40;99.90;;;;;;4922544;28;90363;-31
2022/03/03 03:20:46;;;;;;;66.65;49.50;;;0.40;99.90;;;;;;4921908;28;89703;-30
2022/03/03 03:23:14;;;;;;;70.28;49.83;;;0.40;99.90;;;;;;4920931;28;90028;-33
2022/03/03 03:25:43;;;;;;;57.95;44.70;;;0.30;99.90;;;;;;4921411;28;90601;-33
2022/03/03 03:28:12;;;;;;;75.72;51.38;;;0.30;99.90;;;;;;4922156;28;90035;-30
2022/03/03 03:30:39;;;;;;;68.72;49.08;;;0.30;99.90;;;;;;4921717;28;90084;-31
2022/03/03 03:33:05;;;;;;;66.68;51.65;;;0.30;99.90;;;;;;4922043;28;89564;-29
2022/03/03 03:35:30;;;;;;;66.22;48.97;;;0.30;99.90;;;;;;4919368;28;89224;-34
2022/03/03 03:37:56;;;;;;;67.47;49.80;;;0.30;99.90;;;;;;4921517;28;90460;-30
2022/03/03 03:40:22;;;;;;;71.97;51.30;;;0.30;99.90;;;;;;4920185;28;91569;-29
2022/03/03 03:42:48;;;;;;;68.63;50.35;;;0.30;99.90;;;;;;4920974;28;89590;-31
2022/03/03 03:45:14;;;;;;;66.07;48.58;;;0.30;99.90;;;;;;4921624;28;89437;-30
2022/03/03 03:47:41;;;;;;;74.55;51.58;;;0.20;99.90;;;;;;4921428;28;90284;-29
2022/03/03 03:50:10;;;;;;;68.97;48.28;;;0.20;99.90;;;;;;4921034;28;90790;-33
2022/03/03 03:52:38;;;;;;;74.07;52.08;;;0.20;99.90;;;;;;4921341;28;90132;-36
2022/03/03 03:55:06;;;;;;;64.67;51.30;;;0.20;99.90;;;;;;4921870;28;88990;-32
2022/03/03 03:57:31;;;;;;;72.53;49.80;;;0.20;99.90;;;;;;4921044;28;90317;-32
2022/03/03 03:59:57;;;;;;;63.47;49.63;;;0.20;99.90;;;;;;4920860;28;89384;-29
2022/03/03 04:02:23;;;;;;;63.45;47.60;;;0.20;99.90;;;;;;4921624;28;89550;-31
2022/03/03 04:04:49;;;;;;;66.15;48.05;;;0.20;99.90;;;;;;4920611;28;89713;-32
2022/03/03 04:07:15;;;;;;;64.03;49.38;;;0.20;99.90;;;;;;4920865;28;90206;-35
2022/03/03 04:09:40;;;;;;;62.47;47.83;;;0.20;99.90;;;;;;4921215;28;89621;-33
2022/03/03 04:12:06;;;;;;;65.55;49.50;;;0.20;99.90;;;;;;4920964;28;89408;-31
2022/03/03 04:14:32;;;;;;;57.42;44.38;;;0.20;99.90;;;;;;4920793;28;88748;-33
2022/03/03 04:16:58;;;;;;;59.78;46.13;;;0.10;99.90;;;;;;4920424;28;90405;-32
2022/03/03 04:19:23;;;;;;;61.20;49.03;;;0.10;99.90;;;;;;4920922;28;89702;-29
2022/03/03 04:21:49;;;;;;;66.78;46.80;;;0.10;99.90;;;;;;4920755;28;89387;-32
2022/03/03 04:24:15;;;;;;;62.92;47.08;;;0.00;99.90;;;;;;4920552;28;89673;-31
2022/03/03 04:26:40;;;;;;;63.13;44.17;;;0.00;99.90;;;;;;4921353;28;89090;-28
2022/03/03 04:29:06;;;;;;;57.30;46.35;;;0.00;99.90;;;;;;4920556;28;89578;-30
2022/03/03 04:31:32;;;;;;;66.18;46.30;;;0.00;99.90;;;;;;4921273;28;90703;-30
2022/03/03 04:33:57;;;;;;;61.95;46.45;;;-0.10;99.90;;;;;;4919456;28;89845;-32
2022/03/03 04:36:23;;;;;;;54.92;40.03;;;-0.10;99.90;;;;;;4920377;28;94062;-35
2022/03/03 04:38:50;;;;;;;65.45;47.08;;;-0.10;99.90;;;;;;4920049;28;91019;-30
2022/03/03 04:41:17;;;;;;;58.53;44.65;;;-0.10;99.90;;;;;;4920363;28;89626;-32
2022/03/03 04:43:42;;;;;;;60.53;46.58;;;-0.10;99.90;;;;;;4920834;28;90031;-29
2022/03/03 04:46:08;;;;;;;65.40;46.50;;;-0.20;99.90;;;;;;4920756;28;89929;-30
2022/03/03 04:48:34;;;;;;;54.97;45.38;;;-0.20;99.90;;;;;;4919573;28;90106;-35
2022/03/03 04:51:00;;;;;;;63.38;45.35;;;-0.20;99.90;;;;;;4920743;28;89613;-30
2022/03/03 04:53:27;;;;;;;60.72;46.00;;;-0.30;99.90;;;;;;4920104;28;88136;-32
2022/03/03 04:55:53;;;;;;;61.72;47.33;;;-0.30;99.90;;;;;;4920564;28;90268;-32
2022/03/03 04:58:18;;;;;;;58.70;45.50;;;-0.30;99.90;;;;;;4920107;28;90187;-29
2022/03/03 05:00:44;;;;;;;55.85;42.83;;;-0.30;99.90;;;;;;4919577;28;89419;-31
2022/03/03 05:03:10;;;;;;;55.65;40.90;;;-0.20;99.90;;;;;;4920210;28;90316;-28
2022/03/03 05:05:35;;;;;;;65.25;44.65;;;-0.10;99.90;;;;;;4917689;28;90863;-31
2022/03/03 05:08:01;;;;;;;64.88;47.72;;;0.00;99.90;;;;;;4921136;28;90081;-30
2022/03/03 05:10:27;;;;;;;59.03;44.15;;;0.10;99.90;;;;;;4919739;28;89847;-30
2022/03/03 05:12:53;;;;;;;65.43;45.53;;;0.00;99.90;;;;;;4919444;28;89254;-32
2022/03/03 05:15:18;;;;;;;60.58;44.72;;;0.00;99.90;;;;;;4919772;28;90217;-30
2022/03/03 05:17:44;;;;;;;57.35;43.85;;;0.00;99.90;;;;;;4919756;28;88829;-29
2022/03/03 05:20:10;;;;;;;57.70;43.17;;;0.00;99.90;;;;;;4920751;28;90141;-32
2022/03/03 05:22:35;;;;;;;53.17;39.72;;;0.00;99.90;;;;;;4918931;28;87650;-31
2022/03/03 05:25:01;;;;;;;56.30;42.92;;;0.00;99.90;;;;;;4917750;28;89470;-32
2022/03/03 05:27:27;;;;;;;54.03;40.63;;;0.00;99.90;;;;;;4919471;28;91042;-28
2022/03/03 05:29:53;;;;;;;62.78;43.47;;;0.00;99.90;;;;;;4920007;28;90696;-29
2022/03/03 05:32:19;;;;;;;56.92;42.55;;;0.10;99.90;;;;;;4920246;28;87740;-30
2022/03/03 05:34:44;;;;;;;55.83;42.10;;;0.00;99.90;;;;;;4918615;28;90052;-30
2022/03/03 05:37:10;;;;;;;53.80;41.95;;;0.00;99.90;;;;;;4919516;28;89222;-33
2022/03/03 05:39:36;;;;;;;53.35;40.30;;;0.00;99.90;;;;;;4919358;28;91066;-31
2022/03/03 05:42:03;;;;;;;50.72;39.78;;;-0.10;99.90;;;;;;4920070;28;90038;-28
2022/03/03 05:44:28;;;;;;;48.50;38.85;;;-0.10;99.90;;;;;;4919519;28;91570;-32
2022/03/03 05:46:55;;;;;;;57.08;42.15;;;-0.10;99.90;;;;;;4919489;28;91669;-31
2022/03/03 05:49:22;;;;;;;51.78;40.05;;;-0.10;99.90;;;;;;4919115;28;89129;-33
2022/03/03 05:51:48;;;;;;;51.67;42.15;;;-0.10;99.90;;;;;;4919305;28;89526;-31
2022/03/03 05:54:13;;;;;;;51.90;42.15;;;-0.10;99.90;;;;;;4919174;28;90708;-31
2022/03/03 05:56:44;;;;;;;55.75;41.90;;;-0.20;99.90;;;;;;4919618;28;89636;-33
2022/03/03 05:59:14;;;;;;;55.30;45.55;;;-0.20;99.90;;;;;;4918737;28;89639;-31
2022/03/03 06:01:42;;;;;;;52.75;41.47;;;-0.30;99.90;;;;;;4918625;28;89799;-32
2022/03/03 06:04:12;;;;;;;57.70;41.38;;;-0.20;99.90;;;;;;4919455;28;88883;-32
2022/03/03 06:06:40;;;;;;;58.25;41.92;;;-0.20;99.90;;;;;;4918915;28;89553;-32
2022/03/03 06:09:14;;;;;;;58.33;43.15;;;-0.20;99.90;;;;;;4918239;28;91609;-35
2022/03/03 06:11:48;;;;;;;60.53;43.03;;;-0.30;99.90;;;;;;4918787;28;89319;-35
2022/03/03 06:14:19;;;;;;;59.95;41.67;;;-0.30;99.90;;;;;;4919544;28;89998;-31
2022/03/03 06:16:45;;;;;;;53.55;41.03;;;-0.30;99.90;;;;;;4918720;28;90468;-30
2022/03/03 06:19:11;;;;;;;56.58;43.58;;;-0.30;99.90;;;;;;4916738;28;92751;-31
2022/03/03 06:21:37;;;;;;;55.10;42.97;;;-0.30;99.90;;;;;;4919089;28;88223;-30
2022/03/03 06:24:03;;;;;;;59.88;44.15;;;-0.30;99.90;;;;;;4919801;28;91025;-31
2022/03/03 06:26:28;;;;;;;57.20;44.00;;;-0.30;99.90;;;;;;4918422;28;89403;-31
2022/03/03 06:28:54;;;;;;;59.00;43.83;;;-0.40;99.90;;;;;;4919029;28;89806;-36
2022/03/03 06:31:20;;;;;;;61.58;42.90;;;-0.40;99.90;;;;;;4919252;28;89021;-33
2022/03/03 06:33:45;;;;;;;61.00;43.72;;;-0.40;99.90;;;;;;4918763;28;90198;-34
2022/03/03 06:36:14;;;;;;;57.90;42.67;;;-0.40;99.90;;;;;;4919325;28;90100;-32
2022/03/03 06:38:39;;;;;;;53.53;39.92;;;-0.40;99.90;;;;;;4918953;28;89879;-32
2022/03/03 06:41:05;;;;;;;57.20;43.80;;;-0.30;99.90;;;;;;4918267;28;89308;-32
2022/03/03 06:43:31;;;;;;;55.17;41.60;;;-0.30;99.90;;;;;;4918121;28;90180;-33
2022/03/03 06:45:57;;;;;;;53.20;39.92;;;-0.30;99.90;;;;;;4919209;28;89583;-33
2022/03/03 06:48:24;;;;;;;59.92;44.65;;;-0.20;99.90;;;;;;4922088;28;90070;-33
2022/03/03 06:50:53;;;;;;;57.33;45.00;;;-0.20;99.90;;;;;;4920523;28;88777;-34
2022/03/03 06:53:25;;;;;;;54.65;43.92;;;-0.10;99.90;;;;;;4921345;28;90351;-31
2022/03/03 06:55:53;;;;;;;52.22;40.78;;;-0.10;99.90;;;;;;4922269;28;90517;-33
2022/03/03 06:58:24;;;;;;;60.90;43.78;;;-0.10;99.90;;;;;;4922446;28;89635;-30
2022/03/03 07:00:52;;;;;;;57.17;44.00;;;-0.10;99.90;;;;;;4922290;28;89584;-33
2022/03/03 07:03:20;;;;;;;56.47;41.92;;;0.00;99.90;;;;;;4921729;28;90023;-32
2022/03/03 07:05:46;;;;;;;58.17;41.88;;;0.00;99.90;;;;;;4920071;28;90858;-30
2022/03/03 07:08:13;;;;;;;60.00;42.83;;;0.00;99.90;;;;;;4921953;28;90378;-35
2022/03/03 07:10:39;;;;;;;58.10;43.65;;;0.00;99.90;;;;;;4922977;28;89201;-33
2022/03/03 07:13:05;;;;;;;60.17;44.53;;;0.00;99.90;;;;;;4921687;28;91658;-33
2022/03/03 07:15:34;;;;;;;56.50;42.20;;;0.00;99.90;;;;;;4921012;28;89942;-30
2022/03/03 07:18:11;;;;;;;56.05;43.28;;;0.00;99.90;;;;;;4921762;28;90461;-31
2022/03/03 07:21:09;;;;;;;57.47;43.67;;;0.00;99.90;;;;;;4922195;28;88458;-32
2022/03/03 07:23:39;;;;;;;57.20;44.15;;;0.10;99.90;;;;;;4912361;28;90382;-30
2022/03/03 07:26:08;;;;;;;53.88;40.75;;;0.10;99.90;;;;;;4921454;28;90078;-32
2022/03/03 07:28:38;;;;;;;56.65;40.17;;;0.10;99.90;;;;;;4920395;28;89360;-36
2022/03/03 07:31:03;;;;;;;53.22;42.60;;;0.20;99.90;;;;;;4903048;28;89364;-33
2022/03/03 07:33:55;;;;;;;52.95;39.70;;;0.30;99.90;;;;;;4919752;28;90658;-32
2022/03/03 07:36:25;;;;;;;48.75;38.45;;;0.60;99.90;;;;;;4921073;28;89696;-32
2022/03/03 07:38:59;;;;;;;52.92;39.67;;;0.70;99.90;;;;;;4921711;28;88740;-29
2022/03/03 07:41:27;;;;;;;45.45;35.83;;;0.80;99.90;;;;;;4921638;28;89699;-36
2022/03/03 07:43:54;;;;;;;50.47;36.75;;;0.90;99.90;;;;;;4921526;28;90868;-32
2022/03/03 07:46:20;;;;;;;44.83;36.70;;;1.00;99.90;;;;;;4921504;28;90017;-30
2022/03/03 07:48:46;;;;;;;49.50;37.30;;;1.10;99.90;;;;;;4921209;28;90257;-34
2022/03/03 07:51:12;;;;;;;49.88;35.67;;;1.20;99.90;;;;;;4920586;28;89343;-35
2022/03/03 07:53:38;;;;;;;52.20;37.53;;;1.30;99.90;;;;;;4920580;28;91517;-32
2022/03/03 07:56:05;;;;;;;41.50;28.95;;;1.50;99.90;;;;;;4920099;28;90013;-35
2022/03/03 07:58:37;;;;;;;47.47;36.55;;;1.60;99.90;;;;;;4919791;28;90868;-36
2022/03/03 08:01:05;;;;;;;49.83;37.13;;;1.70;99.90;;;;;;4919056;28;88994;-34
2022/03/03 08:03:31;;;;;;;40.70;33.40;;;1.70;99.90;;;;;;4918258;28;90043;-34
2022/03/03 08:05:58;;;;;;;45.03;33.88;;;1.80;99.90;;;;;;4918243;28;89184;-34
2022/03/03 08:08:30;;;;;;;53.97;37.90;;;1.80;99.90;;;;;;4917938;28;89821;-33
2022/03/03 08:11:04;;;;;;;42.28;30.02;;;1.90;99.90;;;;;;4919096;28;89133;-32
2022/03/03 08:13:30;;;;;;;51.53;33.72;;;1.90;99.90;;;;;;4920042;28;91711;-31
2022/03/03 08:15:57;;;;;;;48.33;35.50;;;2.00;99.90;;;;;;4921213;28;89281;-29
2022/03/03 08:18:29;;;;;;;47.45;36.40;;;2.10;99.90;;;;;;4920478;28;89677;-29
2022/03/03 08:20:56;;;;;;;40.72;35.38;;;2.20;99.90;;;;;;4920580;28;89955;-30
2022/03/03 08:23:25;;;;;;;46.80;36.43;;;2.30;99.90;;;;;;4919926;28;90286;-33
2022/03/03 08:25:54;;;;;;;48.30;36.05;;;2.40;99.90;;;;;;4919959;28;90029;-28
2022/03/03 08:28:23;;;;;;;45.28;34.90;;;2.50;99.90;;;;;;4920351;28;90131;-31
2022/03/03 08:31:19;;;;;;;43.20;32.88;;;2.60;99.90;;;;;;4920696;28;90032;-34
2022/03/03 08:34:12;;;;;;;44.00;32.38;;;2.70;99.90;;;;;;4911657;28;90571;-37
2022/03/03 08:36:54;;;;;;;42.70;30.83;;;2.90;99.90;;;;;;4919765;28;89633;-37
2022/03/03 08:39:26;;;;;;;34.88;24.20;;;3.00;99.90;;;;;;4920207;28;89210;-35
2022/03/03 08:41:55;;;;;;;40.30;32.45;;;3.20;99.90;;;;;;4919337;28;88752;-30
2022/03/03 08:44:27;;;;;;;39.35;31.35;;;3.30;99.90;;;;;;4920014;28;89048;-32
2022/03/03 08:46:56;;;;;;;35.00;27.90;;;3.50;99.90;;;;;;4919643;28;90759;-31
2022/03/03 08:49:28;;;;;;;47.90;33.90;;;3.60;99.90;;;;;;4920140;28;90541;-30
2022/03/03 08:51:54;;;;;;;45.42;33.13;;;3.60;99.90;;;;;;4920407;28;89892;-29
2022/03/03 08:54:21;;;;;;;43.40;33.15;;;3.80;99.90;;;;;;4919998;28;90126;-29
2022/03/03 08:56:47;;;;;;;40.35;34.08;;;3.90;99.90;;;;;;4920868;28;90212;-33
2022/03/03 08:59:12;;;;;;;41.25;31.55;;;3.90;99.90;;;;;;4919813;28;89609;-33
2022/03/03 09:01:38;;;;;;;42.22;31.17;;;4.10;99.90;;;;;;4920856;28;88642;-31
2022/03/03 09:04:04;;;;;;;40.92;31.25;;;4.20;99.90;;;;;;4920157;28;90314;-33
2022/03/03 09:06:31;;;;;;;38.38;30.08;;;4.30;99.90;;;;;;4918744;28;89787;-32
2022/03/03 09:08:57;;;;;;;33.35;25.80;;;4.40;99.90;;;;;;4918706;28;89861;-33
2022/03/03 09:11:24;;;;;;;37.72;32.92;;;4.50;99.90;;;;;;4918726;28;89590;-29
2022/03/03 09:13:50;;;;;;;37.58;30.15;;;4.50;99.90;;;;;;4919097;28;90411;-33
2022/03/03 09:16:17;;;;;;;37.88;32.65;;;4.60;99.90;;;;;;4919648;28;89779;-34
2022/03/03 09:18:44;;;;;;;35.35;26.55;;;4.70;99.90;;;;;;4919772;28;89626;-29
2022/03/03 09:21:10;;;;;;;41.22;31.45;;;4.80;99.90;;;;;;4919652;28;89372;-38
2022/03/03 09:23:36;;;;;;;37.47;30.73;;;4.90;99.90;;;;;;4919650;28;90465;-35
2022/03/03 09:26:01;;;;;;;41.35;31.52;;;5.00;99.90;;;;;;4917600;28;90446;-33
2022/03/03 09:28:27;;;;;;;45.17;34.03;;;5.10;99.90;;;;;;4917521;28;90103;-33
2022/03/03 09:30:53;;;;;;;38.97;31.05;;;5.20;99.90;;;;;;4919860;28;88730;-34
2022/03/03 09:33:18;;;;;;;38.15;29.42;;;5.30;99.90;;;;;;4917822;28;90767;-32
2022/03/03 09:35:44;;;;;;;42.55;33.70;;;5.40;99.90;;;;;;4917861;28;90732;-35
2022/03/03 09:38:09;;;;;;;45.67;33.88;;;5.50;99.90;;;;;;4918788;28;90221;-30
2022/03/03 09:40:35;;;;;;;40.55;29.40;;;5.60;99.90;;;;;;4920165;28;89164;-35
2022/03/03 09:43:04;;;;;;;37.90;31.50;;;5.80;99.90;;;;;;4919025;28;90684;-37
2022/03/03 09:45:30;;;;;;;35.47;27.60;;;5.90;99.90;;;;;;4918211;28;89738;-34
2022/03/03 09:47:58;;;;;;;34.25;21.67;;;6.00;99.90;;;;;;4919129;28;89715;-33
2022/03/03 09:50:26;;;;;;;35.85;26.73;;;6.20;92.90;;;;;;4919140;28;89652;-34
2022/03/03 09:52:53;;;;;;;31.07;21.40;;;6.30;96.60;;;;;;4919691;28;90544;-32
2022/03/03 09:55:20;;;;;;;32.38;24.17;;;6.40;93.60;;;;;;4918275;28;90130;-32
2022/03/03 09:57:49;;;;;;;35.40;28.95;;;6.50;90.30;;;;;;4919154;28;89778;-34
2022/03/03 10:00:15;;;;;;;35.30;27.48;;;6.60;93.10;;;;;;4916876;28;89100;-34
2022/03/03 10:03:03;;;;;;;42.25;29.23;;;6.60;94.90;;;;;;4919096;28;90414;-32
2022/03/03 10:05:34;;;;;;;34.95;29.08;;;6.80;90.30;;;;;;4918376;28;89735;-36
2022/03/03 10:08:08;;;;;;;33.78;28.20;;;6.90;94.40;;;;;;4919846;28;88643;-32
2022/03/03 10:10:36;;;;;;;36.83;29.65;;;7.00;94.00;;;;;;4919273;28;89385;-33
2022/03/03 10:13:03;;;;;;;42.10;30.60;;;7.20;93.00;;;;;;4919024;28;91260;-34
2022/03/03 10:15:30;;;;;;;33.08;25.63;;;7.40;90.00;;;;;;4919656;28;90262;-33
2022/03/03 10:17:58;;;;;;;31.70;25.08;;;7.60;81.30;;;;;;4919161;28;90113;-33
2022/03/03 10:20:24;;;;;;;36.53;30.03;;;7.80;79.00;;;;;;4918018;28;89291;-34
2022/03/03 10:22:57;;;;;;;35.72;29.10;;;7.80;79.90;;;;;;4921739;28;90104;-34
2022/03/03 10:25:35;;;;;;;31.02;26.35;;;7.90;82.80;;;;;;4920612;28;91282;-32
2022/03/03 10:28:29;;;;;;;33.35;27.55;;;8.10;75.90;;;;;;4922626;28;90271;-32
2022/03/03 10:31:00;;;;;;;31.08;26.85;;;8.10;76.60;;;;;;4922331;28;88661;-34
2022/03/03 10:33:32;;;;;;;36.60;24.60;;;8.20;82.00;;;;;;4921897;28;90029;-34
2022/03/03 10:36:08;;;;;;;32.70;25.25;;;8.30;77.00;;;;;;4921156;28;90950;-32
2022/03/03 10:38:56;;;;;;;27.88;23.10;;;8.50;75.20;;;;;;4920594;28;90134;-32
2022/03/03 10:41:33;;;;;;;28.25;25.38;;;8.60;70.80;;;;;;4919667;28;88473;-35
2022/03/03 10:44:03;;;;;;;32.10;26.77;;;8.60;71.20;;;;;;4918888;28;90947;-32
2022/03/03 10:46:29;;;;;;;29.23;22.58;;;8.70;72.90;;;;;;4918261;28;90233;-37
2022/03/03 10:48:55;;;;;;;30.02;23.85;;;8.80;70.40;;;;;;4919533;28;90489;-34
2022/03/03 10:51:24;;;;;;;24.02;19.48;;;8.80;69.50;;;;;;4918520;28;89985;-33
2022/03/03 10:54:02;;;;;;;25.95;22.17;;;9.00;65.80;;;;;;4918986;28;90588;-33
2022/03/03 10:56:28;;;;;;;;;;;8.90;68.90;;;;;;4919480;28;89829;-34
2022/03/03 10:58:57;;;;;;;32.05;25.05;;;8.90;67.20;;;;;;4920737;28;89377;-36
2022/03/03 11:01:25;;;;;;;26.50;20.77;;;9.00;67.20;;;;;;4919783;28;89821;-36
2022/03/03 11:03:53;;;;;;;23.10;19.58;;;9.10;67.20;;;;;;4919825;28;91927;-32
2022/03/03 11:06:28;;;;;;;30.35;25.42;;;9.20;66.50;;;;;;4917980;28;91066;-32
2022/03/03 11:08:55;;;;;;;26.17;20.85;;;9.20;69.90;;;;;;4918129;28;90337;-36
2022/03/03 11:11:22;;;;;;;25.48;22.63;;;9.30;67.70;;;;;;4916480;28;90555;-32
2022/03/03 11:13:51;;;;;;;30.80;24.08;;;9.20;66.30;;;;;;4919283;28;90022;-32
2022/03/03 11:16:19;;;;;;;27.42;21.50;;;9.20;68.10;;;;;;4917302;28;91235;-32
2022/03/03 11:18:46;;;;;;;24.45;20.88;;;9.20;68.30;;;;;;4919142;28;90221;-36
2022/03/03 11:21:13;;;;;;;23.27;19.52;;;9.20;68.90;;;;;;4919049;28;88219;-36
2022/03/03 11:23:47;;;;;;;30.00;23.88;;;9.30;64.10;;;;;;4918794;28;90648;-35
2022/03/03 11:26:34;;;;;;;26.85;20.60;;;9.30;65.70;;;;;;4919471;28;91933;-35
2022/03/03 11:29:07;;;;;;;25.52;21.60;;;9.40;64.40;;;;;;4918978;28;89917;-35
2022/03/03 11:31:34;;;;;;;26.80;21.20;;;9.50;66.00;;;;;;4919493;28;88839;-35
2022/03/03 11:34:23;;;;;;;25.35;21.00;;;9.50;65.80;;;;;;4917739;28;90449;-33
2022/03/03 11:37:16;;;;;;;27.17;21.95;;;9.60;64.60;;;;;;4906747;28;90490;-33
2022/03/03 11:39:59;;;;;;;26.77;20.92;;;9.60;64.20;;;;;;4909687;28;89862;-34
2022/03/03 11:42:35;;;;;;;24.23;20.75;;;9.70;65.40;;;;;;4931954;28;89932;-34
2022/03/03 11:45:06;;;;;;;25.92;20.02;;;9.80;62.20;;;;;;4918294;28;91714;-34
2022/03/03 11:47:34;;;;;;;23.38;20.10;;;9.80;62.70;;;;;;4918195;28;89711;-34
2022/03/03 11:50:12;;;;;;;25.02;21.30;;;9.80;65.80;;;;;;4919047;28;89305;-31
2022/03/03 11:52:38;;;;;;;25.65;20.45;;;9.90;62.80;;;;;;4919391;28;88847;-35
2022/03/03 11:55:37;;;;;;;24.67;18.70;;;10.00;63.20;;;;;;4918690;28;90568;-32
2022/03/03 11:58:11;;;;;;;25.42;21.80;;;10.00;60.70;;;;;;4919099;28;89772;-35
2022/03/03 12:00:46;;;;;;;23.20;19.67;;;10.00;62.00;;;;;;4918996;28;90362;-36
2022/03/03 12:03:17;;;;;;;24.88;19.10;;;10.10;60.60;;;;;;4917877;28;88120;-32
2022/03/03 12:05:47;;;;;;;32.83;22.10;;;10.10;63.00;;;;;;4953777;22;90800;-34
2022/03/03 12:08:15;;;;;;;29.33;21.83;;;10.10;64.60;;;;;;4936396;28;91346;-32
2022/03/03 12:11:11;;;;;;;26.98;21.42;;;10.20;63.20;;;;;;4920315;28;91150;-32
2022/03/03 12:13:39;;;;;;;26.88;20.60;;;10.20;62.80;;;;;;4938365;28;88340;-35
2022/03/03 12:16:15;;;;;;;31.60;23.38;;;10.20;63.70;;;;;;4937833;28;90035;-33
2022/03/03 12:18:42;;;;;;;30.48;22.08;;;10.30;63.70;;;;;;4937361;28;89713;-32
2022/03/03 12:21:23;;;;;;;93.38;62.83;;;10.30;62.40;;;;;;4938245;28;90462;-32
2022/03/03 12:23:49;;;;;;;28.05;23.05;;;10.30;63.20;;;;;;4937980;28;88807;-33
2022/03/03 12:26:15;;;;;;;25.10;21.05;;;10.30;61.70;;;;;;4938595;28;90047;-33
2022/03/03 12:28:47;;;;;;;25.38;21.02;;;10.20;62.70;;;;;;4937529;28;90051;-34
2022/03/03 12:31:20;;;;;;;21.52;18.45;;;10.10;63.30;;;;;;4937967;28;89583;-35
2022/03/03 12:34:05;;;;;;;24.83;20.88;;;10.10;63.60;;;;;;4937946;28;89072;-35
2022/03/03 12:36:32;;;;;;;27.92;19.27;;;10.20;64.10;;;;;;4937293;28;91416;-35
2022/03/03 12:38:58;;;;;;;29.75;22.67;;;10.30;60.00;;;;;;4937530;28;90213;-37
2022/03/03 12:41:29;;;;;;;37.25;18.98;;;10.20;62.30;;;;;;4936238;28;90120;-38